Time;durP1;ratioP1;P1;durP2;ratioP2;P2;SDS_P1;SDS_P2;PMS_P1;PMS_P2;Temp;Humidity;BMP_temperature;BMP_pressure;BME280_temperature;BME280_humidity;BME280_pressure;Samples;Min_cycle;Max_cycle;Signal;HPM_P1;HPM_P2
2022/04/21 00:00:41;;;;;;;9.13;7.50;;;;;;;;;;5032051;28;20050;-90
2022/04/21 00:03:08;;;;;;;7.90;7.05;;;;;;;;;;5032966;28;20545;-90
2022/04/21 00:05:36;;;;;;;12.40;7.85;;;;;;;;;;5032999;28;20107;-90
2022/04/21 00:08:04;;;;;;;7.53;6.78;;;;;;;;;;5037091;28;20136;-90
2022/04/21 00:10:31;;;;;;;8.10;7.28;;;;;;;;;;5036625;28;20073;-90
2022/04/21 00:12:58;;;;;;;9.85;7.22;;;;;;;;;;5036946;28;20095;-91
2022/04/21 00:15:26;;;;;;;8.95;7.18;;;;;;;;;;5036741;28;20049;-91
2022/04/21 00:17:53;;;;;;;8.95;8.02;;;;;;;;;;5036919;28;20428;-90
2022/04/21 00:20:20;;;;;;;10.13;8.15;;;;;;;;;;5036155;28;20508;-90
2022/04/21 00:25:34;;;;;;;9.55;7.55;;;;;;;;;;5036804;28;20084;-90
2022/04/21 00:28:01;;;;;;;8.98;7.65;;;;;;;;;;5036494;28;20528;-90
2022/04/21 00:30:28;;;;;;;7.53;6.80;;;;;;;;;;5036734;28;20136;-90
2022/04/21 00:32:56;;;;;;;11.68;7.05;;;;;;;;;;5035788;28;20087;-90
2022/04/21 00:35:25;;;;;;;9.07;7.03;;;;;;;;;;5039659;28;20520;-90
2022/04/21 00:37:53;;;;;;;15.32;7.82;;;;;;;;;;5036532;28;20087;-90
2022/04/21 00:40:21;;;;;;;10.38;7.82;;;;;;;;;;5035444;28;20136;-91
2022/04/21 00:42:48;;;;;;;8.15;7.35;;;;;;;;;;5036416;28;20103;-90
2022/04/21 00:45:16;;;;;;;9.23;7.20;;;;;;;;;;5035695;28;20140;-90
2022/04/21 00:47:44;;;;;;;8.60;7.30;;;;;;;;;;5035313;28;20091;-91
2022/04/21 00:50:15;;;;;;;9.15;7.32;;;;;;;;;;5036554;28;20053;-90
2022/04/21 00:52:42;;;;;;;9.48;7.63;;;;;;;;;;5035407;28;20050;-90
2022/04/21 00:55:09;;;;;;;14.73;8.10;;;;;;;;;;5035363;28;20092;-90
2022/04/21 00:57:38;;;;;;;7.70;6.88;;;;;;;;;;5035261;28;20050;-91
2022/04/21 01:00:06;;;;;;;7.63;6.80;;;;;;;;;;5036474;28;20052;-90
2022/04/21 01:02:46;;;;;;;7.93;6.78;;;;;;;;;;5035498;28;20050;-91
2022/04/21 01:05:14;;;;;;;8.82;7.93;;;;;;;;;;5035056;28;20552;-90
2022/04/21 01:07:42;;;;;;;12.77;7.88;;;;;;;;;;5034973;28;20141;-91
2022/04/21 01:10:10;;;;;;;10.20;7.63;;;;;;;;;;5035334;28;20472;-90
2022/04/21 01:12:38;;;;;;;8.65;7.25;;;;;;;;;;5036087;28;20483;-90
2022/04/21 01:15:05;;;;;;;7.90;7.15;;;;;;;;;;5035404;28;20045;-90
2022/04/21 01:17:37;;;;;;;7.80;6.97;;;;;;;;;;5034416;28;20463;-90
2022/04/21 01:20:05;;;;;;;8.07;7.28;;;;;;;;;;5035552;28;20046;-91
2022/04/21 01:22:33;;;;;;;8.27;7.18;;;;;;;;;;5034841;28;20132;-90
2022/04/21 01:25:00;;;;;;;7.63;6.93;;;;;;;;;;5034831;28;20052;-90
2022/04/21 01:27:30;;;;;;;8.00;7.20;;;;;;;;;;5035745;28;20085;-90
2022/04/21 01:29:58;;;;;;;9.40;7.65;;;;;;;;;;5034694;28;20125;-90
2022/04/21 01:32:25;;;;;;;8.13;7.28;;;;;;;;;;5035535;28;20092;-90
2022/04/21 01:34:53;;;;;;;9.90;8.07;;;;;;;;;;5034543;28;20498;-91
2022/04/21 01:42:52;;;;;;;10.25;6.88;;;;;;;;;;5035342;28;20045;-90
2022/04/21 01:45:19;;;;;;;7.55;6.70;;;;;;;;;;5034561;28;20498;-89
2022/04/21 01:47:46;;;;;;;9.60;7.05;;;;;;;;;;5035317;28;20132;-90
2022/04/21 01:50:13;;;;;;;7.85;6.65;;;;;;;;;;5034485;28;20049;-91
2022/04/21 01:52:40;;;;;;;7.60;6.85;;;;;;;;;;5034122;28;20056;-90
2022/04/21 01:55:08;;;;;;;7.90;7.10;;;;;;;;;;5034023;28;20073;-91
2022/04/21 01:57:35;;;;;;;7.85;7.03;;;;;;;;;;5034864;28;20502;-89
2022/04/21 02:00:02;;;;;;;8.07;7.28;;;;;;;;;;5035023;28;20140;-91
2022/04/21 02:02:30;;;;;;;8.18;7.38;;;;;;;;;;5034059;28;20148;-91
2022/04/21 02:04:57;;;;;;;9.70;6.97;;;;;;;;;;5033518;28;20049;-90
2022/04/21 02:07:25;;;;;;;9.40;7.25;;;;;;;;;;5034735;28;20049;-90
2022/04/21 02:09:52;;;;;;;7.85;6.72;;;;;;;;;;5033524;28;20073;-90
2022/04/21 02:12:21;;;;;;;7.80;7.00;;;;;;;;;;5033627;28;20140;-90
2022/04/21 02:14:48;;;;;;;8.48;7.00;;;;;;;;;;5033982;28;20489;-90
2022/04/21 02:17:15;;;;;;;8.20;6.72;;;;;;;;;;5033894;28;20561;-91
2022/04/21 02:19:42;;;;;;;8.30;6.82;;;;;;;;;;5033950;28;20045;-90
2022/04/21 02:22:09;;;;;;;7.20;6.60;;;;;;;;;;5034031;28;20049;-91
2022/04/21 02:24:37;;;;;;;8.82;6.95;;;;;;;;;;5034365;28;20073;-90
2022/04/21 02:27:04;;;;;;;10.43;6.63;;;;;;;;;;5033623;28;20060;-90
2022/04/21 02:29:32;;;;;;;9.63;8.18;;;;;;;;;;5034287;28;20049;-90
2022/04/21 02:32:01;;;;;;;7.78;6.95;;;;;;;;;;5034566;28;20054;-90
2022/04/21 02:34:29;;;;;;;8.45;7.43;;;;;;;;;;5034680;28;20457;-90
2022/04/21 02:36:57;;;;;;;7.80;7.00;;;;;;;;;;5033644;28;20080;-90
2022/04/21 02:39:24;;;;;;;9.63;7.57;;;;;;;;;;5033309;28;20454;-90
2022/04/21 02:41:52;;;;;;;9.13;7.43;;;;;;;;;;5034217;28;20133;-90
2022/04/21 02:44:20;;;;;;;12.88;7.82;;;;;;;;;;5033609;28;20140;-90
2022/04/21 02:46:47;;;;;;;9.82;8.60;;;;;;;;;;5034070;28;20052;-90
2022/04/21 02:49:15;;;;;;;12.82;8.30;;;;;;;;;;5033206;28;20050;-91
2022/04/21 02:51:43;;;;;;;8.75;7.95;;;;;;;;;;5033042;28;20132;-90
2022/04/21 02:59:42;;;;;;;11.75;8.35;;;;;;;;;;5033715;28;20513;-90
2022/04/21 03:02:09;;;;;;;16.70;8.63;;;;;;;;;;5033752;28;20064;-90
2022/04/21 03:04:36;;;;;;;11.20;8.88;;;;;;;;;;5032660;28;20073;-90
2022/04/21 03:07:04;;;;;;;15.50;9.00;;;;;;;;;;5032561;28;20140;-90
2022/04/21 03:09:32;;;;;;;10.32;8.77;;;;;;;;;;5032821;28;20045;-91
2022/04/21 03:12:03;;;;;;;10.55;8.50;;;;;;;;;;5032863;28;20506;-90
2022/04/21 03:14:31;;;;;;;9.55;8.52;;;;;;;;;;5033492;28;20056;-90
2022/04/21 03:17:01;;;;;;;8.93;8.00;;;;;;;;;;5033463;28;20510;-90
2022/04/21 03:19:28;;;;;;;14.75;8.95;;;;;;;;;;5032648;28;20141;-91
2022/04/21 03:24:41;;;;;;;10.52;9.32;;;;;;;;;;5033361;28;20120;-90
2022/04/21 03:27:09;;;;;;;15.13;9.77;;;;;;;;;;5033141;28;20128;-90
2022/04/21 03:29:39;;;;;;;10.82;9.73;;;;;;;;;;5033262;28;20080;-90
2022/04/21 03:32:10;;;;;;;10.45;9.45;;;;;;;;;;5032551;28;20132;-90
2022/04/21 03:34:42;;;;;;;12.45;8.57;;;;;;;;;;5033742;28;20053;-90
2022/04/21 03:37:13;;;;;;;12.05;9.07;;;;;;;;;;5033990;28;20128;-91
2022/04/21 03:39:41;;;;;;;10.95;8.90;;;;;;;;;;5032514;28;20053;-90
2022/04/21 03:42:18;;;;;;;11.88;9.35;;;;;;;;;;5033243;28;20105;-89
2022/04/21 03:44:45;;;;;;;11.77;9.15;;;;;;;;;;5034020;28;20482;-91
2022/04/21 03:47:12;;;;;;;15.90;9.63;;;;;;;;;;5033642;28;20091;-90
2022/04/21 03:49:40;;;;;;;15.63;9.82;;;;;;;;;;5032108;28;20127;-90
2022/04/21 03:52:09;;;;;;;11.63;9.50;;;;;;;;;;5033287;28;20049;-90
2022/04/21 03:54:37;;;;;;;15.63;8.30;;;;;;;;;;5033744;28;20495;-90
2022/04/21 03:57:05;;;;;;;11.27;7.97;;;;;;;;;;5032396;28;20046;-90
2022/04/21 03:59:33;;;;;;;8.30;7.25;;;;;;;;;;5032232;28;20050;-90
2022/04/21 04:02:02;;;;;;;10.52;7.65;;;;;;;;;;5031984;28;20049;-91
2022/04/21 04:04:30;;;;;;;8.27;7.38;;;;;;;;;;5032281;28;20049;-91
2022/04/21 04:12:34;;;;;;;9.13;7.05;;;;;;;;;;5032909;28;20049;-91
2022/04/21 04:15:05;;;;;;;11.43;7.97;;;;;;;;;;5031751;28;20056;-91
2022/04/21 04:17:32;;;;;;;42.92;9.27;;;;;;;;;;5031804;28;20073;-90
2022/04/21 04:20:00;;;;;;;47.53;11.05;;;;;;;;;;5031895;28;20053;-90
2022/04/21 04:22:27;;;;;;;61.13;10.25;;;;;;;;;;5031914;28;20092;-91
2022/04/21 04:24:56;;;;;;;38.97;9.57;;;;;;;;;;5032640;28;20558;-91
2022/04/21 04:27:23;;;;;;;22.55;8.60;;;;;;;;;;5031565;28;20550;-90
2022/04/21 04:29:51;;;;;;;21.85;11.00;;;;;;;;;;5031680;28;20046;-91
2022/04/21 04:32:18;;;;;;;10.13;7.95;;;;;;;;;;5032782;28;20049;-90
2022/04/21 04:34:45;;;;;;;6.95;6.25;;;;;;;;;;5031794;28;20477;-90
2022/04/21 04:37:12;;;;;;;7.40;6.70;;;;;;;;;;5031975;28;20045;-90
2022/04/21 04:39:40;;;;;;;7.97;7.18;;;;;;;;;;5031620;28;20148;-91
2022/04/21 04:42:16;;;;;;;11.05;7.75;;;;;;;;;;5031794;28;20113;-90
2022/04/21 04:44:47;;;;;;;11.43;7.40;;;;;;;;;;5031407;28;20053;-90
2022/04/21 04:47:14;;;;;;;14.70;7.25;;;;;;;;;;5031732;28;20050;-90
2022/04/21 04:49:42;;;;;;;12.00;7.50;;;;;;;;;;5032947;28;20054;-90
2022/04/21 04:52:09;;;;;;;10.75;7.15;;;;;;;;;;5032806;28;20045;-90
2022/04/21 04:54:36;;;;;;;16.77;8.73;;;;;;;;;;5036009;28;20483;-90
2022/04/21 04:57:04;;;;;;;16.33;8.10;;;;;;;;;;5034970;28;20045;-91
2022/04/21 04:59:31;;;;;;;17.83;8.18;;;;;;;;;;5036061;28;20490;-90
2022/04/21 05:01:59;;;;;;;15.13;8.00;;;;;;;;;;5039309;28;20049;-90
2022/04/21 05:04:26;;;;;;;17.70;8.35;;;;;;;;;;5034935;28;20073;-91
2022/04/21 05:06:55;;;;;;;13.48;8.35;;;;;;;;;;5034638;28;20080;-91
2022/04/21 05:09:23;;;;;;;11.75;8.55;;;;;;;;;;5035579;28;20081;-90
2022/04/21 05:11:52;;;;;;;14.57;7.68;;;;;;;;;;5034966;28;20061;-90
2022/04/21 05:14:20;;;;;;;17.08;8.65;;;;;;;;;;5034609;28;20063;-90
2022/04/21 05:16:48;;;;;;;10.98;7.93;;;;;;;;;;5037734;28;20084;-90
2022/04/21 05:19:16;;;;;;;13.10;8.02;;;;;;;;;;5034649;28;20073;-91
2022/04/21 05:21:44;;;;;;;10.73;8.15;;;;;;;;;;5034829;28;20081;-90
2022/04/21 05:24:11;;;;;;;13.55;7.53;;;;;;;;;;5035716;28;20129;-91
2022/04/21 05:26:38;;;;;;;12.77;8.13;;;;;;;;;;5035661;28;20069;-90
2022/04/21 05:32:02;;;;;;;9.98;7.57;;;;;;;;;;5035327;28;20124;-90
2022/04/21 05:34:31;;;;;;;8.88;6.65;;;;;;;;;;5034486;28;20049;-90
2022/04/21 05:36:59;;;;;;;11.50;6.95;;;;;;;;;;5034595;28;20045;-90
2022/04/21 05:39:27;;;;;;;9.63;6.35;;;;;;;;;;5034554;28;20077;-89
2022/04/21 05:41:55;;;;;;;13.18;6.75;;;;;;;;;;5034150;28;20128;-90
2022/04/21 05:44:22;;;;;;;6.10;5.50;;;;;;;;;;5034975;28;20148;-90
2022/04/21 05:46:49;;;;;;;7.03;5.60;;;;;;;;;;5034068;28;20509;-90
2022/04/21 05:49:17;;;;;;;6.25;5.60;;;;;;;;;;5034334;28;20132;-90
2022/04/21 05:51:46;;;;;;;7.80;5.57;;;;;;;;;;5035152;28;20516;-91
2022/04/21 05:54:14;;;;;;;6.05;5.28;;;;;;;;;;5035051;28;20068;-91
2022/04/21 05:56:41;;;;;;;9.82;6.18;;;;;;;;;;5037781;28;20047;-90
2022/04/21 05:59:08;;;;;;;9.45;6.35;;;;;;;;;;5045604;28;20056;-90
2022/04/21 06:01:36;;;;;;;8.30;5.80;;;;;;;;;;5045499;28;20045;-89
2022/04/21 06:04:03;;;;;;;8.32;5.85;;;;;;;;;;5041224;28;20102;-90
2022/04/21 06:06:31;;;;;;;6.72;5.78;;;;;;;;;;5042143;28;20136;-90
2022/04/21 06:08:58;;;;;;;6.78;5.70;;;;;;;;;;5041928;28;20328;-90
2022/04/21 06:11:25;;;;;;;6.10;5.15;;;;;;;;;;5046936;28;20083;-90
2022/04/21 06:13:52;;;;;;;9.18;6.50;;;;;;;;;;5035933;28;20594;-89
2022/04/21 06:16:19;;;;;;;12.07;9.15;;;;;;;;;;5036334;28;20049;-89
2022/04/21 06:18:46;;;;;;;10.73;9.85;;;;;;;;;;5035694;28;20418;-89
2022/04/21 06:21:13;;;;;;;9.13;6.65;;;;;;;;;;5033871;28;20128;-89
2022/04/21 06:23:41;;;;;;;9.30;6.47;;;;;;;;;;5033525;28;20322;-90
2022/04/21 06:26:08;;;;;;;9.45;6.32;;;;;;;;;;5034750;28;20429;-89
2022/04/21 06:28:35;;;;;;;14.95;8.15;;;;;;;;;;5033445;28;20057;-90
2022/04/21 06:31:03;;;;;;;12.18;6.18;;;;;;;;;;5033540;28;20095;-91
2022/04/21 06:33:31;;;;;;;11.70;6.72;;;;;;;;;;5033075;28;20053;-89
2022/04/21 06:35:59;;;;;;;9.70;6.43;;;;;;;;;;5033321;28;20534;-89
2022/04/21 06:38:27;;;;;;;10.95;6.28;;;;;;;;;;5033345;28;20045;-89
2022/04/21 06:40:54;;;;;;;9.57;5.55;;;;;;;;;;5033107;28;20077;-90
2022/04/21 06:48:58;;;;;;;12.13;6.32;;;;;;;;;;5032744;28;20073;-89
2022/04/21 06:51:27;;;;;;;8.57;5.63;;;;;;;;;;5033004;28;20052;-90
2022/04/21 06:53:55;;;;;;;10.10;5.88;;;;;;;;;;5034398;28;20050;-90
2022/04/21 06:56:22;;;;;;;11.55;6.32;;;;;;;;;;5036326;28;20489;-89
2022/04/21 06:58:55;;;;;;;8.55;6.10;;;;;;;;;;5032654;28;20041;-89
2022/04/21 07:01:22;;;;;;;7.88;5.60;;;;;;;;;;5032629;28;20486;-89
2022/04/21 07:03:50;;;;;;;11.52;5.80;;;;;;;;;;5033423;28;20103;-90
2022/04/21 07:06:17;;;;;;;7.97;6.30;;;;;;;;;;5033387;28;20112;-90
2022/04/21 07:08:45;;;;;;;7.22;5.82;;;;;;;;;;5032606;28;20095;-89
2022/04/21 07:11:12;;;;;;;6.15;5.45;;;;;;;;;;5032668;28;20049;-90
2022/04/21 07:13:39;;;;;;;9.68;6.22;;;;;;;;;;5032411;28;20079;-90
2022/04/21 07:16:06;;;;;;;9.77;5.43;;;;;;;;;;5032053;28;20073;-90
2022/04/21 07:18:34;;;;;;;5.88;5.30;;;;;;;;;;5032540;28;20076;-89
2022/04/21 07:21:02;;;;;;;8.73;5.97;;;;;;;;;;5033020;28;20045;-90
2022/04/21 07:23:29;;;;;;;8.48;5.95;;;;;;;;;;5033878;28;20053;-89
2022/04/21 07:25:56;;;;;;;12.90;5.75;;;;;;;;;;5033597;28;20087;-90
2022/04/21 07:28:23;;;;;;;8.10;5.72;;;;;;;;;;5033784;28;20045;-90
2022/04/21 07:30:50;;;;;;;9.20;5.82;;;;;;;;;;5032580;28;20508;-90
2022/04/21 07:33:18;;;;;;;10.90;5.88;;;;;;;;;;5033475;28;20070;-90
2022/04/21 07:35:46;;;;;;;8.98;5.70;;;;;;;;;;5032879;28;20048;-89
2022/04/21 07:38:14;;;;;;;9.82;6.07;;;;;;;;;;5032578;28;20053;-90
2022/04/21 07:40:41;;;;;;;8.00;5.35;;;;;;;;;;5032319;28;20188;-90
2022/04/21 07:43:09;;;;;;;11.90;6.10;;;;;;;;;;5032060;28;20053;-90
2022/04/21 07:45:38;;;;;;;9.95;6.07;;;;;;;;;;5031920;28;20057;-90
2022/04/21 07:48:05;;;;;;;10.27;6.95;;;;;;;;;;5032536;28;20128;-90
2022/04/21 07:50:33;;;;;;;8.75;6.82;;;;;;;;;;5033826;28;20092;-89
2022/04/21 07:53:20;;;;;;;12.55;6.90;;;;;;;;;;5032442;28;20497;-89
2022/04/21 07:55:52;;;;;;;11.93;6.82;;;;;;;;;;5032090;28;20054;-90
2022/04/21 07:58:21;;;;;;;10.80;7.20;;;;;;;;;;5032772;28;20046;-89
2022/04/21 08:00:49;;;;;;;9.20;6.97;;;;;;;;;;5033175;28;20049;-89
2022/04/21 08:03:19;;;;;;;8.77;6.50;;;;;;;;;;5032335;28;20045;-90
2022/04/21 08:05:47;;;;;;;14.68;7.38;;;;;;;;;;5033152;28;20049;-90
2022/04/21 08:08:14;;;;;;;12.38;7.35;;;;;;;;;;5029612;28;20057;-89
2022/04/21 08:10:41;;;;;;;12.65;7.25;;;;;;;;;;5032178;28;20053;-90
2022/04/21 08:13:09;;;;;;;21.73;8.77;;;;;;;;;;5032118;28;20077;-89
2022/04/21 08:15:36;;;;;;;9.95;7.65;;;;;;;;;;5032876;28;20054;-90
2022/04/21 08:18:04;;;;;;;11.27;7.88;;;;;;;;;;5033439;28;20137;-90
2022/04/21 08:20:32;;;;;;;11.63;8.07;;;;;;;;;;5032321;28;20103;-89
2022/04/21 08:23:00;;;;;;;12.25;8.30;;;;;;;;;;5031933;28;20095;-90
2022/04/21 08:34:25;;;;;;;13.52;8.23;;;;;;;;;;5036826;28;20053;-90
2022/04/21 08:36:58;;;;;;;22.42;9.32;;;;;;;;;;5035997;28;20414;-89
2022/04/21 08:39:26;;;;;;;20.48;8.98;;;;;;;;;;5035731;28;20129;-90
2022/04/21 08:41:58;;;;;;;20.10;8.40;;;;;;;;;;5036563;28;20049;-89
2022/04/21 08:44:27;;;;;;;13.88;8.00;;;;;;;;;;5036385;28;20053;-90
2022/04/21 08:46:56;;;;;;;54.30;24.42;;;;;;;;;;5036788;28;20085;-90
2022/04/21 08:49:24;;;;;;;18.70;11.45;;;;;;;;;;5038048;28;20093;-90
2022/04/21 08:51:52;;;;;;;20.27;10.55;;;;;;;;;;5035695;28;20076;-90
2022/04/21 08:54:19;;;;;;;19.90;10.27;;;;;;;;;;5035428;28;20051;-89
2022/04/21 08:56:49;;;;;;;20.50;10.07;;;;;;;;;;5035052;28;20129;-90
2022/04/21 08:59:16;;;;;;;22.80;11.45;;;;;;;;;;5035452;28;20065;-89
2022/04/21 09:01:44;;;;;;;21.15;11.10;;;;;;;;;;5035230;28;20080;-90
2022/04/21 09:04:11;;;;;;;20.48;11.48;;;;;;;;;;5035173;28;20049;-88
2022/04/21 09:06:38;;;;;;;25.98;14.82;;;;;;;;;;5035183;28;20060;-89
2022/04/21 09:09:16;;;;;;;26.35;11.95;;;;;;;;;;5035040;28;20490;-88
2022/04/21 09:11:44;;;;;;;21.55;10.73;;;;;;;;;;5034861;28;20057;-90
2022/04/21 09:14:16;;;;;;;19.48;11.10;;;;;;;;;;5034724;28;20137;-89
2022/04/21 09:16:43;;;;;;;22.17;13.15;;;;;;;;;;5035526;28;20540;-89
2022/04/21 09:19:11;;;;;;;20.60;12.38;;;;;;;;;;5035997;28;20049;-90
2022/04/21 09:21:38;;;;;;;25.80;13.38;;;;;;;;;;5035706;28;20059;-89
2022/04/21 09:24:22;;;;;;;29.40;15.38;;;;;;;;;;5034662;28;20069;-90
2022/04/21 09:26:50;;;;;;;29.48;14.32;;;;;;;;;;5034466;28;20051;-90
2022/04/21 09:29:33;;;;;;;51.40;26.08;;;;;;;;;;5034615;28;20133;-89
2022/04/21 09:32:02;;;;;;;19.50;11.63;;;;;;;;;;5034574;28;20072;-89
2022/04/21 09:34:37;;;;;;;29.13;13.80;;;;;;;;;;5034248;28;20046;-90
2022/04/21 09:37:07;;;;;;;44.45;19.67;;;;;;;;;;5034347;28;20059;-89
2022/04/21 09:39:41;;;;;;;33.08;16.40;;;;;;;;;;5033908;28;20124;-89
2022/04/21 09:42:08;;;;;;;;;;;;;;;;;;5035800;28;20049;-89
2022/04/21 09:47:30;;;;;;;34.78;17.45;;;;;;;;;;5035274;28;20114;-90
2022/04/21 09:49:58;;;;;;;27.33;13.75;;;;;;;;;;5034213;28;20107;-89
2022/04/21 09:52:26;;;;;;;32.10;16.30;;;;;;;;;;5034259;28;20050;-89
2022/04/21 09:54:54;;;;;;;32.58;16.30;;;;;;;;;;5035133;28;20045;-89
2022/04/21 09:57:34;;;;;;;30.05;16.02;;;;;;;;;;5036985;28;20101;-89
2022/04/21 10:00:02;;;;;;;25.73;13.80;;;;;;;;;;5036133;28;20087;-90
2022/04/21 10:02:30;;;;;;;27.98;15.43;;;;;;;;;;5036357;28;20162;-89
2022/04/21 10:04:58;;;;;;;25.50;15.05;;;;;;;;;;5037115;28;20092;-89
2022/04/21 10:07:26;;;;;;;29.27;13.65;;;;;;;;;;5035279;28;20041;-88
2022/04/21 10:09:54;;;;;;;32.90;16.23;;;;;;;;;;5033709;28;20103;-89
2022/04/21 10:12:22;;;;;;;28.65;15.63;;;;;;;;;;5033869;28;20532;-90
2022/04/21 10:14:51;;;;;;;32.95;16.08;;;;;;;;;;5034335;28;20513;-88
2022/04/21 10:17:19;;;;;;;31.23;16.20;;;;;;;;;;5034592;28;20056;-89
2022/04/21 10:19:51;;;;;;;32.92;16.10;;;;;;;;;;5033702;28;20122;-89
2022/04/21 10:22:25;;;;;;;50.40;24.60;;;;;;;;;;5033407;28;20387;-90
2022/04/21 10:24:54;;;;;;;23.02;11.77;;;;;;;;;;5033468;28;20461;-89
2022/04/21 10:27:46;;;;;;;46.55;25.83;;;;;;;;;;5033286;28;20142;-90
2022/04/21 10:30:20;;;;;;;25.95;12.65;;;;;;;;;;5034442;28;20060;-90
2022/04/21 10:32:49;;;;;;;25.35;13.30;;;;;;;;;;5032906;28;20053;-90
2022/04/21 10:35:19;;;;;;;30.48;14.38;;;;;;;;;;5033225;28;20049;-90
2022/04/21 10:37:46;;;;;;;38.55;21.55;;;;;;;;;;5032963;28;20088;-90
2022/04/21 10:40:21;;;;;;;23.77;13.77;;;;;;;;;;5033213;28;20461;-90
2022/04/21 10:42:55;;;;;;;57.15;29.92;;;;;;;;;;5033281;28;20111;-91
2022/04/21 10:45:23;;;;;;;27.13;12.63;;;;;;;;;;5033887;28;20437;-90
2022/04/21 10:48:06;;;;;;;61.38;23.55;;;;;;;;;;5033598;28;20128;-90
2022/04/21 10:50:34;;;;;;;45.65;23.15;;;;;;;;;;5032105;28;20136;-89
2022/04/21 10:58:36;;;;;;;35.33;17.40;;;;;;;;;;5032767;28;20069;-91
2022/04/21 11:01:08;;;;;;;23.77;13.57;;;;;;;;;;5033092;28;20049;-89
2022/04/21 11:03:36;;;;;;;25.92;14.05;;;;;;;;;;5032504;28;20041;-89
2022/04/21 11:06:10;;;;;;;26.30;14.65;;;;;;;;;;5032557;28;20139;-89
2022/04/21 11:08:37;;;;;;;24.73;14.02;;;;;;;;;;5032779;28;20084;-90
2022/04/21 11:11:05;;;;;;;18.83;13.02;;;;;;;;;;5033833;28;20060;-90
2022/04/21 11:13:42;;;;;;;26.48;13.98;;;;;;;;;;5032936;28;20052;-90
2022/04/21 11:16:09;;;;;;;23.15;13.27;;;;;;;;;;5033514;28;20539;-90
2022/04/21 11:18:36;;;;;;;18.33;12.32;;;;;;;;;;5033584;28;20058;-89
2022/04/21 11:21:26;;;;;;;21.40;13.48;;;;;;;;;;5036516;28;20049;-89
2022/04/21 11:23:54;;;;;;;16.65;10.93;;;;;;;;;;5033011;28;20061;-89
2022/04/21 11:26:28;;;;;;;14.35;9.18;;;;;;;;;;5032577;28;20056;-89
2022/04/21 11:29:01;;;;;;;14.32;8.73;;;;;;;;;;5032276;28;20055;-90
2022/04/21 11:31:28;;;;;;;16.50;9.07;;;;;;;;;;5032551;28;20064;-90
2022/04/21 11:34:00;;;;;;;9.90;7.32;;;;;;;;;;5033521;28;20045;-88
2022/04/21 11:36:35;;;;;;;12.60;7.88;;;;;;;;;;5032715;28;20512;-91
2022/04/21 11:39:07;;;;;;;13.15;7.00;;;;;;;;;;5032507;28;20050;-90
2022/04/21 11:41:34;;;;;;;8.13;6.97;;;;;;;;;;5032673;28;20498;-90
2022/04/21 11:44:02;;;;;;;9.05;6.97;;;;;;;;;;5033327;28;20045;-89
2022/04/21 11:46:29;;;;;;;7.80;6.30;;;;;;;;;;5032385;28;20041;-90
2022/04/21 11:49:03;;;;;;;14.55;7.13;;;;;;;;;;5033624;28;20543;-90
2022/04/21 11:51:31;;;;;;;9.50;6.60;;;;;;;;;;5032301;28;20096;-90
2022/04/21 11:54:09;;;;;;;12.65;6.57;;;;;;;;;;5031955;28;20542;-92
2022/04/21 11:56:36;;;;;;;7.60;6.80;;;;;;;;;;5032401;28;20049;-90
2022/04/21 11:59:10;;;;;;;7.45;6.72;;;;;;;;;;5033050;28;20100;-90
2022/04/21 12:07:17;;;;;;;8.10;6.53;;;;;;;;;;5037247;28;20135;-91
2022/04/21 12:09:46;;;;;;;12.35;9.77;;;;;;;;;;5036468;28;20069;-89
2022/04/21 12:12:15;;;;;;;10.50;9.02;;;;;;;;;;5036239;28;20513;-89
2022/04/21 12:14:43;;;;;;;40.83;29.88;;;;;;;;;;5035537;28;20104;-88
2022/04/21 12:17:10;;;;;;;23.10;16.67;;;;;;;;;;5035572;28;20514;-89
2022/04/21 12:19:38;;;;;;;15.60;12.82;;;;;;;;;;5035805;28;20046;-90
2022/04/21 12:22:08;;;;;;;14.32;10.68;;;;;;;;;;5035743;28;20053;-91
2022/04/21 12:24:41;;;;;;;7.65;6.97;;;;;;;;;;5036597;28;20050;-89
2022/04/21 12:27:19;;;;;;;8.80;7.05;;;;;;;;;;5035817;28;20128;-90
2022/04/21 12:29:58;;;;;;;11.25;7.43;;;;;;;;;;5035548;28;20561;-90
2022/04/21 12:32:27;;;;;;;9.18;6.88;;;;;;;;;;5035937;28;20100;-90
2022/04/21 12:34:55;;;;;;;7.85;6.97;;;;;;;;;;5035631;28;20049;-90
2022/04/21 12:37:27;;;;;;;8.55;6.53;;;;;;;;;;5039313;28;20107;-91
2022/04/21 12:39:54;;;;;;;6.47;5.85;;;;;;;;;;5035936;28;20057;-91
2022/04/21 12:42:42;;;;;;;8.07;6.45;;;;;;;;;;5035406;28;20056;-91
2022/04/21 12:45:10;;;;;;;8.65;6.35;;;;;;;;;;5035241;28;20079;-91
2022/04/21 12:47:43;;;;;;;8.02;6.97;;;;;;;;;;5035571;28;20067;-91
2022/04/21 12:50:18;;;;;;;7.47;6.18;;;;;;;;;;5035156;28;20132;-89
2022/04/21 12:52:49;;;;;;;8.68;6.10;;;;;;;;;;5035520;28;20046;-89
2022/04/21 12:55:20;;;;;;;8.88;6.13;;;;;;;;;;5040194;28;20052;-90
2022/04/21 12:57:59;;;;;;;9.50;6.85;;;;;;;;;;5037226;28;20076;-90
2022/04/21 13:00:27;;;;;;;19.20;7.22;;;;;;;;;;5034940;28;20131;-90
2022/04/21 13:02:54;;;;;;;13.30;6.65;;;;;;;;;;5035510;28;20049;-91
2022/04/21 13:05:21;;;;;;;12.63;6.60;;;;;;;;;;5036171;28;20049;-90
2022/04/21 13:07:48;;;;;;;12.15;7.25;;;;;;;;;;5035083;28;20509;-92
2022/04/21 13:10:16;;;;;;;20.38;7.97;;;;;;;;;;5035001;28;20132;-90
2022/04/21 13:12:43;;;;;;;7.05;6.28;;;;;;;;;;5034111;28;20050;-92
2022/04/21 13:15:11;;;;;;;11.80;7.82;;;;;;;;;;5034822;28;20626;-92
2022/04/21 13:17:40;;;;;;;8.10;7.20;;;;;;;;;;5034703;28;20144;-91
2022/04/21 13:20:10;;;;;;;9.23;7.63;;;;;;;;;;5036007;28;20152;-91
2022/04/21 13:22:37;;;;;;;16.23;8.60;;;;;;;;;;5036153;28;20055;-93
2022/04/21 13:25:04;;;;;;;9.65;7.53;;;;;;;;;;5034454;28;20417;-90
2022/04/21 13:27:32;;;;;;;9.75;8.35;;;;;;;;;;5034431;28;20045;-91
2022/04/21 13:29:59;;;;;;;12.73;9.45;;;;;;;;;;5034523;28;20447;-90
2022/04/21 13:35:12;;;;;;;9.95;8.95;;;;;;;;;;5034453;28;20474;-91
2022/04/21 13:37:39;;;;;;;14.18;10.50;;;;;;;;;;5034410;28;20136;-89
2022/04/21 13:40:07;;;;;;;13.25;10.48;;;;;;;;;;5035134;28;20050;-90
2022/04/21 13:42:34;;;;;;;13.30;10.15;;;;;;;;;;5034531;28;20110;-90
2022/04/21 13:45:01;;;;;;;11.68;10.40;;;;;;;;;;5033906;28;20084;-89
2022/04/21 13:47:48;;;;;;;13.80;10.30;;;;;;;;;;5035154;28;20056;-90
2022/04/21 13:50:15;;;;;;;11.27;10.18;;;;;;;;;;5034483;28;20076;-87
2022/04/21 13:52:43;;;;;;;21.10;12.70;;;;;;;;;;5039525;28;20468;-90
2022/04/21 13:55:10;;;;;;;19.55;12.60;;;;;;;;;;5036483;28;20517;-91
2022/04/21 13:57:38;;;;;;;17.85;12.80;;;;;;;;;;5035034;28;20045;-90
2022/04/21 14:00:06;;;;;;;19.58;13.25;;;;;;;;;;5034357;28;20053;-89
2022/04/21 14:02:34;;;;;;;18.20;13.70;;;;;;;;;;5033784;28;20604;-89
2022/04/21 14:05:01;;;;;;;15.73;13.20;;;;;;;;;;5033463;28;20060;-89
2022/04/21 14:07:28;;;;;;;17.42;13.75;;;;;;;;;;5033540;28;20049;-89
2022/04/21 14:09:55;;;;;;;15.93;13.55;;;;;;;;;;5034827;28;20124;-88
2022/04/21 14:12:22;;;;;;;15.52;13.60;;;;;;;;;;5034799;28;20132;-90
2022/04/21 14:14:50;;;;;;;18.52;14.75;;;;;;;;;;5033312;28;20076;-88
2022/04/21 14:17:17;;;;;;;23.65;14.55;;;;;;;;;;5033819;28;20391;-89
2022/04/21 14:19:44;;;;;;;19.65;13.63;;;;;;;;;;5034555;28;20081;-88
2022/04/21 14:22:11;;;;;;;19.45;14.75;;;;;;;;;;5034808;28;20069;-89
2022/04/21 14:24:39;;;;;;;18.73;15.73;;;;;;;;;;5033106;28;20418;-89
2022/04/21 14:27:06;;;;;;;20.63;15.27;;;;;;;;;;5034806;28;20124;-89
2022/04/21 14:29:33;;;;;;;21.45;16.65;;;;;;;;;;5034139;28;20490;-90
2022/04/21 14:32:00;;;;;;;21.58;16.98;;;;;;;;;;5033704;28;20055;-90
2022/04/21 14:34:29;;;;;;;22.75;17.33;;;;;;;;;;5033323;28;20076;-90
2022/04/21 14:36:57;;;;;;;21.67;17.55;;;;;;;;;;5033618;28;20490;-89
2022/04/21 14:44:56;;;;;;;18.38;16.02;;;;;;;;;;5034029;28;20053;-90
2022/04/21 14:47:23;;;;;;;21.67;15.93;;;;;;;;;;5033636;28;20132;-89
2022/04/21 14:49:52;;;;;;;20.05;15.20;;;;;;;;;;5033880;28;20128;-90
2022/04/21 14:52:20;;;;;;;20.65;16.08;;;;;;;;;;5034201;28;20136;-90
2022/04/21 14:54:47;;;;;;;21.17;16.75;;;;;;;;;;5034146;28;20560;-89
2022/04/21 14:57:15;;;;;;;21.40;15.57;;;;;;;;;;5034010;28;20128;-89
2022/04/21 14:59:42;;;;;;;21.25;16.15;;;;;;;;;;5034404;28;20077;-90
2022/04/21 15:02:11;;;;;;;24.65;20.00;;;;;;;;;;5034175;28;20080;-87
2022/04/21 15:04:38;;;;;;;23.77;16.58;;;;;;;;;;5034497;28;20065;-90
2022/04/21 15:07:05;;;;;;;20.60;17.38;;;;;;;;;;5039459;28;20412;-90
2022/04/21 15:09:36;;;;;;;21.83;18.13;;;;;;;;;;5035819;28;20158;-91
2022/04/21 15:12:03;;;;;;;21.05;17.48;;;;;;;;;;5032654;28;20136;-91
2022/04/21 15:14:30;;;;;;;22.52;16.73;;;;;;;;;;5034181;28;20046;-90
2022/04/21 15:16:58;;;;;;;21.40;15.52;;;;;;;;;;5032143;28;20410;-90
2022/04/21 15:19:26;;;;;;;26.75;16.80;;;;;;;;;;5032992;28;20049;-90
2022/04/21 15:21:53;;;;;;;16.98;13.70;;;;;;;;;;5032768;28;20073;-90
2022/04/21 15:24:20;;;;;;;20.52;14.90;;;;;;;;;;5032101;28;20085;-89
2022/04/21 15:26:47;;;;;;;17.83;14.35;;;;;;;;;;5033366;28;20132;-90
2022/04/21 15:29:15;;;;;;;18.85;14.48;;;;;;;;;;5032432;28;20077;-89
2022/04/21 15:31:43;;;;;;;19.50;14.95;;;;;;;;;;5032037;28;20045;-89
2022/04/21 15:34:10;;;;;;;20.20;16.08;;;;;;;;;;5033438;28;20053;-90
2022/04/21 15:36:39;;;;;;;22.90;16.42;;;;;;;;;;5033759;28;20085;-90
2022/04/21 15:39:08;;;;;;;26.63;18.27;;;;;;;;;;5032865;28;20046;-89
2022/04/21 15:41:35;;;;;;;21.33;14.93;;;;;;;;;;5031958;28;20128;-89